createdAt,value
2023-03-17T00:00:53.612Z,3.21
2023-03-17T00:01:53.660Z,3.26
2023-03-17T00:02:53.737Z,3.26
2023-03-17T00:03:53.589Z,3.28
2023-03-17T00:04:53.576Z,3.14
2023-03-17T00:05:53.544Z,3.18
2023-03-17T00:06:53.618Z,3.14
2023-03-17T00:07:53.538Z,3.10
2023-03-17T00:08:53.508Z,3.17
2023-03-17T00:09:53.516Z,3.21
2023-03-17T00:10:53.484Z,3.08
2023-03-17T00:11:53.496Z,3.10
2023-03-17T00:12:53.472Z,3.23
2023-03-17T00:13:53.455Z,3.15
2023-03-17T00:14:53.460Z,3.17
2023-03-17T00:15:53.551Z,3.15
2023-03-17T00:16:53.416Z,3.14
2023-03-17T00:17:53.398Z,3.14
2023-03-17T00:18:53.451Z,3.03
2023-03-17T00:19:53.417Z,3.03
2023-03-17T00:20:53.373Z,3.02
2023-03-17T00:21:53.354Z,2.99
2023-03-17T00:22:53.372Z,3.03
2023-03-17T00:23:53.333Z,3.02
2023-03-17T00:24:53.330Z,3.08
2023-03-17T00:25:53.317Z,3.13
2023-03-17T00:26:53.369Z,3.10
2023-03-17T00:27:53.299Z,3.08
2023-03-17T00:28:53.341Z,3.00
2023-03-17T00:29:53.283Z,3.08
2023-03-17T00:30:53.299Z,3.03
2023-03-17T00:31:53.275Z,2.99
2023-03-17T00:32:53.343Z,2.97
2023-03-17T00:33:53.235Z,2.97
2023-03-17T00:34:53.229Z,3.06
2023-03-17T00:35:53.246Z,2.97
2023-03-17T00:36:53.192Z,3.10
2023-03-17T00:37:53.187Z,3.10
2023-03-17T00:38:53.172Z,3.05
2023-03-17T00:39:53.188Z,2.99
2023-03-17T00:40:53.168Z,2.97
2023-03-17T00:41:53.149Z,2.95
2023-03-17T00:42:53.123Z,2.93
2023-03-17T00:43:53.120Z,2.99
2023-03-17T00:44:53.132Z,3.00
2023-03-17T00:45:53.106Z,2.97
2023-03-17T00:46:53.181Z,2.90
2023-03-17T00:47:53.081Z,2.97
2023-03-17T00:48:53.054Z,3.02
2023-03-17T00:49:53.072Z,2.97
2023-03-17T00:50:53.040Z,2.87
2023-03-17T00:51:53.045Z,2.85
2023-03-17T00:52:53.023Z,2.82
2023-03-17T00:53:52.991Z,2.89
2023-03-17T00:54:53.007Z,2.84
2023-03-17T00:55:53.007Z,2.85
2023-03-17T00:56:52.971Z,2.87
2023-03-17T00:57:52.969Z,2.85
2023-03-17T00:58:52.953Z,2.81
2023-03-17T00:59:52.926Z,2.92
2023-03-17T01:00:53.025Z,2.90
2023-03-17T01:01:53.054Z,2.90
2023-03-17T01:02:52.901Z,2.92
2023-03-17T01:03:52.943Z,2.85
2023-03-17T01:05:05.481Z,2.82
2023-03-17T01:05:53.858Z,2.87
2023-03-17T01:06:52.856Z,2.82
2023-03-17T01:07:52.905Z,2.97
2023-03-17T01:08:52.831Z,3.00
2023-03-17T01:09:52.836Z,2.96
2023-03-17T01:10:52.850Z,2.90
2023-03-17T01:11:52.816Z,2.87
2023-03-17T01:12:52.788Z,2.89
2023-03-17T01:13:52.802Z,2.82
2023-03-17T01:14:52.775Z,2.89
2023-03-17T01:15:52.854Z,2.82
2023-03-17T01:16:52.760Z,2.87
2023-03-17T01:17:52.723Z,2.96
2023-03-17T01:18:52.749Z,2.82
2023-03-17T01:19:52.725Z,2.90
2023-03-17T01:20:52.698Z,2.84
2023-03-17T01:21:52.718Z,2.84
2023-03-17T01:22:52.691Z,2.82
2023-03-17T01:23:52.657Z,2.72
2023-03-17T01:24:52.654Z,2.74
2023-03-17T01:25:52.642Z,2.75
2023-03-17T01:26:52.649Z,2.69
2023-03-17T01:27:52.613Z,2.71
2023-03-17T01:28:52.636Z,2.72
2023-03-17T01:29:52.591Z,2.72
2023-03-17T01:30:52.587Z,2.72
2023-03-17T01:31:52.645Z,2.74
2023-03-17T01:32:52.577Z,2.69
2023-03-17T01:33:52.565Z,2.63
2023-03-17T01:34:52.541Z,2.54
2023-03-17T01:35:52.614Z,2.48
2023-03-17T01:36:52.539Z,2.53
2023-03-17T01:37:52.518Z,2.48
2023-03-17T01:38:52.506Z,2.48
2023-03-17T01:39:52.476Z,2.43
2023-03-17T01:40:52.473Z,2.52
2023-03-17T01:41:52.474Z,2.52
2023-03-17T01:42:52.449Z,2.61
2023-03-17T01:43:52.440Z,2.53
2023-03-17T01:44:52.442Z,2.69
2023-03-17T01:45:52.455Z,2.67
2023-03-17T01:46:52.430Z,2.60
2023-03-17T01:47:52.390Z,2.61
2023-03-17T01:48:52.386Z,2.56
2023-03-17T01:49:52.379Z,2.54
2023-03-17T01:51:00.083Z,2.45
2023-03-17T01:51:52.364Z,2.48
2023-03-17T01:53:00.127Z,2.42
2023-03-17T01:53:59.507Z,2.38
2023-03-17T01:55:00.013Z,2.36
2023-03-17T01:55:59.973Z,2.36
2023-03-17T01:56:59.972Z,2.45
2023-03-17T01:58:01.273Z,2.43
2023-03-17T01:58:52.317Z,2.56
2023-03-17T01:59:59.932Z,2.46
2023-03-17T02:00:52.296Z,2.53
2023-03-17T02:01:52.232Z,2.49
2023-03-17T02:02:52.243Z,2.56
2023-03-17T02:03:52.305Z,2.46
2023-03-17T02:04:52.365Z,2.45
2023-03-17T02:05:52.203Z,2.52
2023-03-17T02:06:58.364Z,2.49
2023-03-17T02:07:53.175Z,2.42
2023-03-17T02:08:52.184Z,2.46
2023-03-17T02:09:52.167Z,2.42
2023-03-17T02:10:52.151Z,2.49
2023-03-17T02:11:52.129Z,2.54
2023-03-17T02:12:52.144Z,2.52
2023-03-17T02:13:52.108Z,2.53
2023-03-17T02:14:52.090Z,2.54
2023-03-17T02:15:52.112Z,2.48
2023-03-17T02:16:52.107Z,2.53
2023-03-17T02:17:52.089Z,2.52
2023-03-17T02:18:52.053Z,2.48
2023-03-17T02:19:52.039Z,2.52
2023-03-17T02:20:52.022Z,2.53
2023-03-17T02:21:52.084Z,2.48
2023-03-17T02:22:52.027Z,2.57
2023-03-17T02:23:51.997Z,2.52
2023-03-17T02:24:51.985Z,2.41
2023-03-17T02:25:51.990Z,2.38
2023-03-17T02:26:51.957Z,2.34
2023-03-17T02:27:51.978Z,2.38
2023-03-17T02:28:51.940Z,2.39
2023-03-17T02:29:51.929Z,2.39
2023-03-17T02:30:51.974Z,2.45
2023-03-17T02:31:51.914Z,2.48
2023-03-17T02:32:51.949Z,2.46
2023-03-17T02:33:51.920Z,2.49
2023-03-17T02:34:51.876Z,2.46
2023-03-17T02:35:51.916Z,2.48
2023-03-17T02:36:51.868Z,2.46
2023-03-17T02:37:51.841Z,2.48
2023-03-17T02:38:51.861Z,2.48
2023-03-17T02:39:51.836Z,2.48
2023-03-17T02:40:51.826Z,2.53
2023-03-17T02:41:51.800Z,2.49
2023-03-17T02:42:51.804Z,2.52
2023-03-17T02:43:51.793Z,2.57
2023-03-17T02:44:51.770Z,2.59
2023-03-17T02:45:51.816Z,2.59
2023-03-17T02:46:51.737Z,2.48
2023-03-17T02:47:51.771Z,2.54
2023-03-17T02:48:51.736Z,2.49
2023-03-17T02:49:51.718Z,2.54
2023-03-17T02:50:51.705Z,2.53
2023-03-17T02:51:51.705Z,2.56
2023-03-17T02:52:51.689Z,2.53
2023-03-17T02:53:51.664Z,2.43
2023-03-17T02:54:51.677Z,2.45
2023-03-17T02:55:51.646Z,2.42
2023-03-17T02:56:51.651Z,2.43
2023-03-17T02:57:51.658Z,2.49
2023-03-17T02:58:51.621Z,2.49
2023-03-17T02:59:51.623Z,2.48
2023-03-17T03:00:51.591Z,2.59
2023-03-17T03:01:51.607Z,2.53
2023-03-17T03:02:51.645Z,2.54
2023-03-17T03:03:51.565Z,2.52
2023-03-17T03:04:51.540Z,2.46
2023-03-17T03:05:51.529Z,2.45
2023-03-17T03:06:51.547Z,2.45
2023-03-17T03:07:51.508Z,2.56
2023-03-17T03:08:51.491Z,2.56
2023-03-17T03:09:51.517Z,2.57
2023-03-17T03:10:51.497Z,2.53
2023-03-17T03:11:51.483Z,2.53
2023-03-17T03:12:51.452Z,2.54
2023-03-17T03:13:51.463Z,2.54
2023-03-17T03:14:51.425Z,2.45
2023-03-17T03:15:51.447Z,2.35
2023-03-17T03:16:51.408Z,2.46
2023-03-17T03:17:51.396Z,2.38
2023-03-17T03:18:51.416Z,2.46
2023-03-17T03:19:51.382Z,2.38
2023-03-17T03:20:51.372Z,2.35
2023-03-17T03:21:51.392Z,2.34
2023-03-17T03:22:51.360Z,2.31
2023-03-17T03:23:51.348Z,2.35
2023-03-17T03:24:51.339Z,2.38
2023-03-17T03:25:51.313Z,2.46
2023-03-17T03:26:51.318Z,2.42
2023-03-17T03:27:51.304Z,2.36
2023-03-17T03:28:51.298Z,2.34
2023-03-17T03:29:51.280Z,2.38
2023-03-17T03:30:51.336Z,2.45
2023-03-17T03:31:51.240Z,2.46
2023-03-17T03:32:51.336Z,2.45
2023-03-17T03:33:51.245Z,2.45
2023-03-17T03:34:51.210Z,2.39
2023-03-17T03:35:51.261Z,2.35
2023-03-17T03:36:51.185Z,2.43
2023-03-17T03:37:51.195Z,2.39
2023-03-17T03:38:51.179Z,2.35
2023-03-17T03:39:51.161Z,2.24
2023-03-17T03:40:51.140Z,2.30
2023-03-17T03:41:51.148Z,2.35
2023-03-17T03:42:51.159Z,2.27
2023-03-17T03:43:51.148Z,2.28
2023-03-17T03:44:51.098Z,2.23
2023-03-17T03:45:51.098Z,2.23
2023-03-17T03:46:51.108Z,2.28
2023-03-17T03:47:51.087Z,2.24
2023-03-17T03:48:51.082Z,2.18
2023-03-17T03:49:51.068Z,2.12
2023-03-17T03:50:51.024Z,2.09
2023-03-17T03:51:51.022Z,2.17
2023-03-17T03:52:50.996Z,2.09
2023-03-17T03:53:51.000Z,2.05
2023-03-17T03:54:50.995Z,2.10
2023-03-17T03:55:50.986Z,2.05
2023-03-17T03:56:50.953Z,2.00
2023-03-17T03:57:50.969Z,2.03
2023-03-17T03:58:50.954Z,1.90
2023-03-17T03:59:50.926Z,1.99
2023-03-17T04:00:50.946Z,2.03
2023-03-17T04:01:50.921Z,2.02
2023-03-17T04:02:50.916Z,2.00
2023-03-17T04:03:50.880Z,1.93
2023-03-17T04:04:50.944Z,1.99
2023-03-17T04:05:50.884Z,2.00
2023-03-17T04:06:50.860Z,2.03
2023-03-17T04:07:50.850Z,2.05
2023-03-17T04:08:50.848Z,2.06
2023-03-17T04:09:50.820Z,2.05
2023-03-17T04:10:50.817Z,2.06
2023-03-17T04:11:50.801Z,2.02
2023-03-17T04:12:50.778Z,2.09
2023-03-17T04:13:50.782Z,2.09
2023-03-17T04:14:50.780Z,2.24
2023-03-17T04:15:50.823Z,2.25
2023-03-17T04:16:50.813Z,2.24
2023-03-17T04:17:50.727Z,2.25
2023-03-17T04:18:50.777Z,2.24
2023-03-17T04:19:50.711Z,2.25
2023-03-17T04:20:50.722Z,2.23
2023-03-17T04:21:52.345Z,2.24
2023-03-17T04:22:50.666Z,2.25
2023-03-17T04:23:50.668Z,2.25
2023-03-17T04:24:50.639Z,2.27
2023-03-17T04:25:50.672Z,2.38
2023-03-17T04:26:50.635Z,2.39
2023-03-17T04:27:50.613Z,2.36
2023-03-17T04:28:50.617Z,2.38
2023-03-17T04:29:50.591Z,2.34
2023-03-17T04:30:50.608Z,2.30
2023-03-17T04:31:50.611Z,2.27
2023-03-17T04:32:50.617Z,2.23
2023-03-17T04:33:50.579Z,2.20
2023-03-17T04:34:50.553Z,2.16
2023-03-17T04:35:50.563Z,2.17
2023-03-17T04:36:50.524Z,2.20
2023-03-17T04:37:50.511Z,2.23
2023-03-17T04:38:50.481Z,2.21
2023-03-17T04:39:50.476Z,2.18
2023-03-17T04:40:50.507Z,2.28
2023-03-17T04:41:50.460Z,2.25
2023-03-17T04:42:50.461Z,2.30
2023-03-17T04:43:50.485Z,2.30
2023-03-17T04:44:50.417Z,2.27
2023-03-17T04:45:50.514Z,2.27
2023-03-17T04:46:50.420Z,2.36
2023-03-17T04:47:50.414Z,2.24
2023-03-17T04:48:50.400Z,2.28
2023-03-17T04:49:50.378Z,2.27
2023-03-17T04:50:50.374Z,2.24
2023-03-17T04:51:50.343Z,2.41
2023-03-17T04:52:50.327Z,2.39
2023-03-17T04:53:50.331Z,2.35
2023-03-17T04:54:50.325Z,2.46
2023-03-17T04:55:50.316Z,2.45
2023-03-17T04:56:50.291Z,2.48
2023-03-17T04:57:50.275Z,2.45
2023-03-17T04:58:50.260Z,2.43
2023-03-17T04:59:50.301Z,2.43
2023-03-17T05:00:50.271Z,2.49
2023-03-17T05:01:50.394Z,2.56
2023-03-17T05:02:50.242Z,2.54
2023-03-17T05:03:50.213Z,2.48
2023-03-17T05:04:50.196Z,2.45
2023-03-17T05:05:50.204Z,2.46
2023-03-17T05:06:50.214Z,2.43
2023-03-17T05:07:50.170Z,2.46
2023-03-17T05:08:50.147Z,2.48
2023-03-17T05:09:50.143Z,2.45
2023-03-17T05:10:50.144Z,2.41
2023-03-17T05:11:50.128Z,2.45
2023-03-17T05:12:50.138Z,2.36
2023-03-17T05:13:50.118Z,2.25
2023-03-17T05:14:50.088Z,2.38
2023-03-17T05:15:50.095Z,2.38
2023-03-17T05:16:50.158Z,2.28
2023-03-17T05:17:50.064Z,2.36
2023-03-17T05:18:50.064Z,2.31
2023-03-17T05:19:50.043Z,2.35
2023-03-17T05:20:50.018Z,2.27
2023-03-17T05:21:50.030Z,2.24
2023-03-17T05:22:50.011Z,2.25
2023-03-17T05:23:50.006Z,2.23
2023-03-17T05:24:49.993Z,2.23
2023-03-17T05:25:49.970Z,2.21
2023-03-17T05:26:49.948Z,2.18
2023-03-17T05:27:49.942Z,2.17
2023-03-17T05:28:49.941Z,2.17
2023-03-17T05:29:49.918Z,2.23
2023-03-17T05:30:49.943Z,2.16
2023-03-17T05:31:49.900Z,2.17
2023-03-17T05:32:49.918Z,2.17
2023-03-17T05:33:49.899Z,2.16
2023-03-17T05:34:49.921Z,2.16
2023-03-17T05:35:49.873Z,2.14
2023-03-17T05:36:49.851Z,2.18
2023-03-17T05:37:49.834Z,2.21
2023-03-17T05:38:49.831Z,2.12
2023-03-17T05:39:49.815Z,2.18
2023-03-17T05:40:49.790Z,2.23
2023-03-17T05:41:49.790Z,2.21
2023-03-17T05:42:49.782Z,2.30
2023-03-17T05:43:49.785Z,2.35
2023-03-17T05:44:49.744Z,2.35
2023-03-17T05:45:49.801Z,2.27
2023-03-17T05:46:49.752Z,2.36
2023-03-17T05:47:49.716Z,2.38
2023-03-17T05:48:49.714Z,2.28
2023-03-17T05:49:49.698Z,2.27
2023-03-17T05:50:49.705Z,2.30
2023-03-17T05:51:49.702Z,2.30
2023-03-17T05:52:49.653Z,2.23
2023-03-17T05:53:49.652Z,2.23
2023-03-17T05:54:49.654Z,2.25
2023-03-17T05:55:49.632Z,2.25
2023-03-17T05:56:49.633Z,2.25
2023-03-17T05:57:49.608Z,2.30
2023-03-17T05:58:49.596Z,2.27
2023-03-17T05:59:49.588Z,2.28
2023-03-17T06:00:49.606Z,2.36
2023-03-17T06:01:49.584Z,2.38
2023-03-17T06:02:49.548Z,2.36
2023-03-17T06:03:49.636Z,2.38
2023-03-17T06:04:49.524Z,2.30
2023-03-17T06:05:49.544Z,2.30
2023-03-17T06:06:49.523Z,2.21
2023-03-17T06:07:54.960Z,2.27
2023-03-17T06:08:50.478Z,2.24
2023-03-17T06:09:49.498Z,2.23
2023-03-17T06:10:49.479Z,2.27
2023-03-17T06:11:49.455Z,2.28
2023-03-17T06:12:49.466Z,2.30
2023-03-17T06:13:49.450Z,2.36
2023-03-17T06:14:49.418Z,2.28
2023-03-17T06:15:49.490Z,2.39
2023-03-17T06:16:49.400Z,2.34
2023-03-17T06:17:49.398Z,2.36
2023-03-17T06:18:49.384Z,2.36
2023-03-17T06:19:49.574Z,2.36
2023-03-17T06:20:49.375Z,2.36
2023-03-17T06:21:49.364Z,2.45
2023-03-17T06:23:03.400Z,2.46
2023-03-17T06:23:50.338Z,2.54
2023-03-17T06:24:49.324Z,2.56
2023-03-17T06:25:49.310Z,2.54
2023-03-17T06:26:49.292Z,2.56
2023-03-17T06:27:49.271Z,2.60
2023-03-17T06:28:49.276Z,2.53
2023-03-17T06:29:49.245Z,2.59
2023-03-17T06:30:49.331Z,2.61
2023-03-17T06:31:49.225Z,2.67
2023-03-17T06:32:49.290Z,2.72
2023-03-17T06:33:49.224Z,2.67
2023-03-17T06:34:49.225Z,2.67
2023-03-17T06:35:49.265Z,2.82
2023-03-17T06:36:49.189Z,2.82
2023-03-17T06:37:49.202Z,2.81
2023-03-17T06:38:49.188Z,2.77
2023-03-17T06:39:49.156Z,2.89
2023-03-17T06:40:49.141Z,2.85
2023-03-17T06:41:49.113Z,2.90
2023-03-17T06:42:49.149Z,2.85
2023-03-17T06:43:49.092Z,2.89
2023-03-17T06:44:49.138Z,2.82
2023-03-17T06:45:49.116Z,2.99
2023-03-17T06:46:49.106Z,3.02
2023-03-17T06:47:49.048Z,3.00
2023-03-17T06:48:49.056Z,2.93
2023-03-17T06:49:49.024Z,3.00
2023-03-17T06:50:49.058Z,3.13
2023-03-17T06:51:49.023Z,3.06
2023-03-17T06:52:49.026Z,3.10
2023-03-17T06:53:49.019Z,3.13
2023-03-17T06:54:48.997Z,3.26
2023-03-17T06:55:48.973Z,3.28
2023-03-17T06:56:48.976Z,3.33
2023-03-17T06:57:51.105Z,3.35
2023-03-17T06:58:48.927Z,3.40
2023-03-17T06:59:48.909Z,3.42
2023-03-17T07:00:49.070Z,3.47
2023-03-17T07:01:48.982Z,3.48
2023-03-17T07:02:48.892Z,3.58
2023-03-17T07:03:48.874Z,3.66
2023-03-17T07:04:48.939Z,3.61
2023-03-17T07:05:48.871Z,3.72
2023-03-17T07:06:48.855Z,3.65
2023-03-17T07:07:48.821Z,3.70
2023-03-17T07:08:48.812Z,3.72
2023-03-17T07:09:48.838Z,3.73
2023-03-17T07:10:48.818Z,3.78
2023-03-17T07:11:48.797Z,3.69
2023-03-17T07:12:48.800Z,3.69
2023-03-17T07:13:48.756Z,3.75
2023-03-17T07:14:48.745Z,3.72
2023-03-17T07:15:48.853Z,3.66
2023-03-17T07:16:48.800Z,3.68
2023-03-17T07:17:48.766Z,3.66
2023-03-17T07:18:48.749Z,3.75
2023-03-17T07:19:48.688Z,3.73
2023-03-17T07:20:48.697Z,3.69
2023-03-17T07:21:48.701Z,3.73
2023-03-17T07:22:48.687Z,3.62
2023-03-17T07:23:48.638Z,3.75
2023-03-17T07:24:48.678Z,3.68
2023-03-17T07:25:48.617Z,3.62
2023-03-17T07:26:48.635Z,3.66
2023-03-17T07:27:48.602Z,3.73
2023-03-17T07:28:48.617Z,3.84
2023-03-17T07:29:48.595Z,3.84
2023-03-17T07:30:48.598Z,3.78
2023-03-17T07:31:48.709Z,3.87
2023-03-17T07:32:48.649Z,3.87
2023-03-17T07:33:48.547Z,3.88
2023-03-17T07:34:48.535Z,3.93
2023-03-17T07:35:48.645Z,3.96
2023-03-17T07:36:48.561Z,3.94
2023-03-17T07:37:48.488Z,3.97
2023-03-17T07:38:48.500Z,4.00
2023-03-17T07:39:48.459Z,4.12
2023-03-17T07:40:48.454Z,4.12
2023-03-17T07:41:48.441Z,4.06
2023-03-17T07:42:48.452Z,4.14
2023-03-17T07:43:48.437Z,4.16
2023-03-17T07:44:48.422Z,4.18
2023-03-17T07:45:48.496Z,4.20
2023-03-17T07:46:48.389Z,4.29
2023-03-17T07:47:48.414Z,4.32
2023-03-17T07:48:48.386Z,4.40
2023-03-17T07:49:48.372Z,4.42
2023-03-17T07:50:48.390Z,4.41
2023-03-17T07:51:48.350Z,4.52
2023-03-17T07:52:48.330Z,4.48
2023-03-17T07:53:48.314Z,4.65
2023-03-17T07:54:48.318Z,4.72
2023-03-17T07:55:48.318Z,4.66
2023-03-17T07:56:48.284Z,4.72
2023-03-17T07:57:48.351Z,4.82
2023-03-17T07:58:55.957Z,4.91
2023-03-17T07:59:48.312Z,4.85
2023-03-17T08:00:48.247Z,4.91
2023-03-17T08:01:48.314Z,4.89
2023-03-17T08:02:59.612Z,4.89
2023-03-17T08:03:49.223Z,4.97
2023-03-17T08:04:48.206Z,4.97
2023-03-17T08:05:48.177Z,5.02
2023-03-17T08:06:48.190Z,5.15
2023-03-17T08:07:48.408Z,5.13
2023-03-17T08:08:48.241Z,5.15
2023-03-17T08:09:48.324Z,5.28
2023-03-17T08:10:48.154Z,5.31
2023-03-17T08:11:48.697Z,5.39
2023-03-17T08:12:48.130Z,5.46
2023-03-17T08:13:48.101Z,5.45
2023-03-17T08:14:48.095Z,5.58
2023-03-17T08:15:48.076Z,5.61
2023-03-17T08:16:48.247Z,5.64
2023-03-17T08:17:48.042Z,5.65
2023-03-17T08:18:48.044Z,5.81
2023-03-17T08:19:48.028Z,5.94
2023-03-17T08:20:48.032Z,5.89
2023-03-17T08:21:47.993Z,5.97
2023-03-17T08:22:48.022Z,6.09
2023-03-17T08:23:47.994Z,6.06
2023-03-17T08:24:48.011Z,6.21
2023-03-17T08:25:48.036Z,6.31
2023-03-17T08:26:47.958Z,6.37
2023-03-17T08:27:47.931Z,6.36
2023-03-17T08:28:47.963Z,6.37
2023-03-17T08:29:47.896Z,6.34
2023-03-17T08:30:50.340Z,6.34
2023-03-17T08:31:48.006Z,6.40
2023-03-17T08:32:47.975Z,6.43
2023-03-17T08:33:47.857Z,6.51
2023-03-17T08:34:47.880Z,6.52
2023-03-17T08:35:47.881Z,6.56
2023-03-17T08:36:47.845Z,6.64
2023-03-17T08:37:47.813Z,6.67
2023-03-17T08:38:47.833Z,6.73
2023-03-17T08:39:47.787Z,6.76
2023-03-17T08:40:47.789Z,6.80
2023-03-17T08:41:47.781Z,6.76
2023-03-17T08:42:47.779Z,6.76
2023-03-17T08:43:47.773Z,6.73
2023-03-17T08:44:48.700Z,6.71
2023-03-17T08:45:47.769Z,6.74
2023-03-17T08:46:47.775Z,6.70
2023-03-17T08:47:47.744Z,6.73
2023-03-17T08:48:47.732Z,6.81
2023-03-17T08:49:47.719Z,6.76
2023-03-17T08:50:47.677Z,6.73
2023-03-17T08:51:47.670Z,6.77
2023-03-17T08:52:47.708Z,6.81
2023-03-17T08:53:47.639Z,6.79
2023-03-17T08:54:47.667Z,6.77
2023-03-17T08:55:47.644Z,6.91
2023-03-17T08:56:47.619Z,6.98
2023-03-17T08:57:47.600Z,6.99
2023-03-17T08:58:47.593Z,7.10
2023-03-17T08:59:47.578Z,7.12
2023-03-17T09:00:47.575Z,7.15
2023-03-17T09:01:47.636Z,7.16
2023-03-17T09:02:47.667Z,7.13
2023-03-17T09:03:47.524Z,7.10
2023-03-17T09:04:47.543Z,7.25
2023-03-17T09:05:47.496Z,7.27
2023-03-17T09:07:02.367Z,7.30
2023-03-17T09:07:48.553Z,7.24
2023-03-17T09:08:47.555Z,7.25
2023-03-17T09:09:47.459Z,7.39
2023-03-17T09:10:47.444Z,7.43
2023-03-17T09:11:47.428Z,7.42
2023-03-17T09:12:47.450Z,7.43
2023-03-17T09:13:47.426Z,7.46
2023-03-17T09:14:49.189Z,7.50
2023-03-17T09:15:47.428Z,7.49
2023-03-17T09:16:47.380Z,7.61
2023-03-17T09:17:47.477Z,7.68
2023-03-17T09:18:47.377Z,7.69
2023-03-17T09:19:47.335Z,7.71
2023-03-17T09:20:47.348Z,7.79
2023-03-17T09:21:47.340Z,7.82
2023-03-17T09:22:47.306Z,7.83
2023-03-17T09:23:47.296Z,7.82
2023-03-17T09:24:47.324Z,7.86
2023-03-17T09:25:47.272Z,7.89
2023-03-17T09:26:47.282Z,7.87
2023-03-17T09:27:47.244Z,7.89
2023-03-17T09:28:47.236Z,7.85
2023-03-17T09:29:47.300Z,7.77
2023-03-17T09:30:47.303Z,7.87
2023-03-17T09:31:47.232Z,7.83
2023-03-17T09:32:47.248Z,7.89
2023-03-17T09:33:47.181Z,7.95
2023-03-17T09:34:48.160Z,7.97
2023-03-17T09:35:47.208Z,7.93
2023-03-17T09:36:47.163Z,7.93
2023-03-17T09:37:47.175Z,7.97
2023-03-17T09:38:47.142Z,7.95
2023-03-17T09:39:47.110Z,7.87
2023-03-17T09:40:47.106Z,7.86
2023-03-17T09:41:47.102Z,7.85
2023-03-17T09:42:47.096Z,7.82
2023-03-17T09:43:47.076Z,7.87
2023-03-17T09:44:47.079Z,7.79
2023-03-17T09:45:47.041Z,7.71
2023-03-17T09:46:47.234Z,7.77
2023-03-17T09:47:47.054Z,7.83
2023-03-17T09:48:47.022Z,7.85
2023-03-17T09:49:47.009Z,7.83
2023-03-17T09:50:47.020Z,7.85
2023-03-17T09:51:47.000Z,7.82
2023-03-17T09:52:47.609Z,7.82
2023-03-17T09:53:46.951Z,7.95
2023-03-17T09:54:46.955Z,7.98
2023-03-17T09:55:46.929Z,7.98
2023-03-17T09:56:46.951Z,7.95
2023-03-17T09:57:46.947Z,7.95
2023-03-17T09:58:47.687Z,7.97
2023-03-17T09:59:46.891Z,8.00
2023-03-17T10:00:46.909Z,8.00
2023-03-17T10:01:46.964Z,8.11
2023-03-17T10:02:46.857Z,8.12
2023-03-17T10:03:46.836Z,8.22
2023-03-17T10:04:46.867Z,8.18
2023-03-17T10:05:46.942Z,8.19
2023-03-17T10:06:46.843Z,8.11
2023-03-17T10:07:46.792Z,8.26
2023-03-17T10:08:46.787Z,8.15
2023-03-17T10:09:46.778Z,8.16
2023-03-17T10:10:46.800Z,8.29
2023-03-17T10:11:46.746Z,8.36
2023-03-17T10:12:46.760Z,8.40
2023-03-17T10:13:46.725Z,8.41
2023-03-17T10:14:46.727Z,8.52
2023-03-17T10:15:46.756Z,8.59
2023-03-17T10:16:46.697Z,8.53
2023-03-17T10:17:46.677Z,8.44
2023-03-17T10:18:46.692Z,8.47
2023-03-17T10:19:46.654Z,8.41
2023-03-17T10:20:46.678Z,8.43
2023-03-17T10:21:46.711Z,8.48
2023-03-17T10:22:46.656Z,8.48
2023-03-17T10:23:46.610Z,8.48
2023-03-17T10:24:46.616Z,8.52
2023-03-17T10:25:46.626Z,8.70
2023-03-17T10:26:46.585Z,8.71
2023-03-17T10:27:46.585Z,8.83
2023-03-17T10:28:46.577Z,8.83
2023-03-17T10:29:48.463Z,8.89
2023-03-17T10:30:46.574Z,8.95
2023-03-17T10:31:46.589Z,9.05
2023-03-17T10:32:46.602Z,9.08
2023-03-17T10:33:46.499Z,9.13
2023-03-17T10:34:46.492Z,9.01
2023-03-17T10:35:46.522Z,9.05
2023-03-17T10:36:46.483Z,9.05
2023-03-17T10:37:46.462Z,9.11
2023-03-17T10:38:46.457Z,9.21
2023-03-17T10:39:46.439Z,9.23
2023-03-17T10:40:46.437Z,9.21
2023-03-17T10:41:46.414Z,9.23
2023-03-17T10:42:46.415Z,9.32
2023-03-17T10:43:46.414Z,9.36
2023-03-17T10:44:46.375Z,9.36
2023-03-17T10:45:46.383Z,9.39
2023-03-17T10:46:46.467Z,9.39
2023-03-17T10:47:46.349Z,9.39
2023-03-17T10:48:46.366Z,9.36
2023-03-17T10:49:46.332Z,9.35
2023-03-17T10:50:48.511Z,9.36
2023-03-17T10:51:46.300Z,9.48
2023-03-17T10:52:46.298Z,9.58
2023-03-17T10:53:46.298Z,9.58
2023-03-17T10:54:46.295Z,9.68
2023-03-17T10:55:46.300Z,9.71
2023-03-17T10:56:46.277Z,9.81
2023-03-17T10:57:46.255Z,9.87
2023-03-17T10:58:46.234Z,9.89
2023-03-17T10:59:46.214Z,9.93
2023-03-17T11:00:46.274Z,9.89
2023-03-17T11:01:46.193Z,9.84
2023-03-17T11:02:46.233Z,9.84
2023-03-17T11:03:46.261Z,9.94
2023-03-17T11:04:46.150Z,9.89
2023-03-17T11:05:46.141Z,9.81
2023-03-17T11:06:46.151Z,9.89
2023-03-17T11:07:46.130Z,9.93
2023-03-17T11:08:46.124Z,10.05
2023-03-17T11:09:46.130Z,9.97
2023-03-17T11:10:46.127Z,10.15
2023-03-17T11:11:46.093Z,10.11
2023-03-17T11:12:46.077Z,10.01
2023-03-17T11:13:46.057Z,10.12
2023-03-17T11:14:46.038Z,10.12
2023-03-17T11:15:46.056Z,10.12
2023-03-17T11:16:46.097Z,10.18
2023-03-17T11:17:46.036Z,10.08
2023-03-17T11:18:46.008Z,9.86
2023-03-17T11:19:46.027Z,9.94
2023-03-17T11:20:45.998Z,9.86
2023-03-17T11:21:46.170Z,9.91
2023-03-17T11:22:45.971Z,9.91
2023-03-17T11:23:45.970Z,9.99
2023-03-17T11:24:45.939Z,9.97
2023-03-17T11:25:45.968Z,9.99
2023-03-17T11:26:45.929Z,10.04
2023-03-17T11:27:45.920Z,10.04
2023-03-17T11:28:45.932Z,10.08
2023-03-17T11:29:45.879Z,10.17
2023-03-17T11:30:45.861Z,10.33
2023-03-17T11:31:45.917Z,10.33
2023-03-17T11:32:45.898Z,10.41
2023-03-17T11:33:45.849Z,10.36
2023-03-17T11:34:45.823Z,10.34
2023-03-17T11:35:45.856Z,10.36
2023-03-17T11:36:45.794Z,10.47
2023-03-17T11:37:45.817Z,10.32
2023-03-17T11:38:45.773Z,10.51
2023-03-17T11:39:45.771Z,10.55
2023-03-17T11:40:45.750Z,10.73
2023-03-17T11:41:45.746Z,10.66
2023-03-17T11:42:45.769Z,10.56
2023-03-17T11:43:45.728Z,10.52
2023-03-17T11:44:45.707Z,10.38
2023-03-17T11:45:45.720Z,10.45
2023-03-17T11:46:45.685Z,10.61
2023-03-17T11:47:45.703Z,10.56
2023-03-17T11:48:45.673Z,10.66
2023-03-17T11:49:45.686Z,10.63
2023-03-17T11:50:45.636Z,10.63
2023-03-17T11:51:45.629Z,10.81
2023-03-17T11:52:45.632Z,10.81
2023-03-17T11:53:45.606Z,10.89
2023-03-17T11:54:45.589Z,10.94
2023-03-17T11:55:45.621Z,10.96
2023-03-17T11:56:45.586Z,10.97
2023-03-17T11:57:45.564Z,11.02
2023-03-17T11:58:45.567Z,11.24
2023-03-17T11:59:45.533Z,11.35
2023-03-17T12:00:54.373Z,11.33
2023-03-17T12:01:45.525Z,11.58
2023-03-17T12:02:45.494Z,11.64
2023-03-17T12:03:45.805Z,11.57
2023-03-17T12:04:45.610Z,11.70
2023-03-17T12:05:45.465Z,11.80
2023-03-17T12:06:56.798Z,11.85
2023-03-17T12:07:45.444Z,12.09
2023-03-17T12:08:53.263Z,12.21
2023-03-17T12:09:45.442Z,12.46
2023-03-17T12:10:45.424Z,12.53
2023-03-17T12:11:45.429Z,12.53
2023-03-17T12:12:45.383Z,12.64
2023-03-17T12:15:01.189Z,12.74
2023-03-17T12:16:01.129Z,12.74
2023-03-17T12:17:08.225Z,12.71
2023-03-17T12:18:01.025Z,12.77
2023-03-17T12:19:01.015Z,12.78
2023-03-17T12:20:01.004Z,12.86
2023-03-17T12:21:00.980Z,12.85
2023-03-17T12:22:00.970Z,12.97
2023-03-17T12:23:01.011Z,13.04
2023-03-17T12:24:01.004Z,12.72
2023-03-17T12:25:01.079Z,12.41
2023-03-17T12:26:00.951Z,12.45
2023-03-17T12:27:00.930Z,12.53
2023-03-17T12:28:00.922Z,12.56
2023-03-17T12:29:00.922Z,12.27
2023-03-17T12:30:00.928Z,12.19
2023-03-17T12:31:00.930Z,12.28
2023-03-17T12:32:00.858Z,12.32
2023-03-17T12:33:00.886Z,12.21
2023-03-17T12:34:00.847Z,11.99
2023-03-17T12:35:00.926Z,12.16
2023-03-17T12:36:00.817Z,12.17
2023-03-17T12:37:00.794Z,12.04
2023-03-17T12:38:00.806Z,11.88
2023-03-17T12:39:00.791Z,11.78
2023-03-17T12:40:00.842Z,11.79
2023-03-17T12:41:00.982Z,11.75
2023-03-17T12:42:00.744Z,11.75
2023-03-17T12:43:00.721Z,11.75
2023-03-17T12:44:00.728Z,11.94
2023-03-17T12:45:00.718Z,11.96
2023-03-17T12:46:00.740Z,11.98
2023-03-17T12:47:00.694Z,12.09
2023-03-17T12:48:00.669Z,12.21
2023-03-17T12:49:00.652Z,12.32
2023-03-17T12:50:00.673Z,12.16
2023-03-17T12:51:00.650Z,11.83
2023-03-17T12:52:00.639Z,11.61
2023-03-17T12:53:00.620Z,11.60
2023-03-17T12:54:00.600Z,11.69
2023-03-17T12:55:00.594Z,11.64
2023-03-17T12:56:00.584Z,11.55
2023-03-17T12:57:00.583Z,11.69
2023-03-17T12:58:00.588Z,11.78
2023-03-17T12:59:00.555Z,11.80
2023-03-17T13:00:00.530Z,11.99
2023-03-17T13:01:00.519Z,12.05
2023-03-17T13:02:00.578Z,12.17
2023-03-17T13:03:00.587Z,12.12
2023-03-17T13:04:00.491Z,12.05
2023-03-17T13:05:00.482Z,12.13
2023-03-17T13:06:00.467Z,11.86
2023-03-17T13:07:00.483Z,11.72
2023-03-17T13:08:00.447Z,11.69
2023-03-17T13:09:00.438Z,11.75
2023-03-17T13:10:00.425Z,11.65
2023-03-17T13:11:00.430Z,11.61
2023-03-17T13:12:00.391Z,11.60
2023-03-17T13:13:00.394Z,11.57
2023-03-17T13:14:00.387Z,11.58
2023-03-17T13:15:00.390Z,11.46
2023-03-17T13:16:00.403Z,11.43